sensor_id;sensor_type;location;lat;lon;timestamp;P1;durP1;ratioP1;P2;durP2;ratioP2
7961;SDS011;4026;43.652;24.906;2023-01-05T00:01:21;2.27;;;1.93;;
7961;SDS011;4026;43.652;24.906;2023-01-05T00:03:47;5.87;;;1.93;;
7961;SDS011;4026;43.652;24.906;2023-01-05T00:06:15;2.50;;;1.97;;
7961;SDS011;4026;43.652;24.906;2023-01-05T00:08:43;1.77;;;1.10;;
7961;SDS011;4026;43.652;24.906;2023-01-05T00:11:11;1.37;;;1.27;;
7961;SDS011;4026;43.652;24.906;2023-01-05T00:13:57;1.40;;;1.30;;
7961;SDS011;4026;43.652;24.906;2023-01-05T00:16:43;1.47;;;1.27;;
7961;SDS011;4026;43.652;24.906;2023-01-05T00:19:27;1.87;;;1.77;;
7961;SDS011;4026;43.652;24.906;2023-01-05T00:22:14;2.27;;;1.27;;
7961;SDS011;4026;43.652;24.906;2023-01-05T00:24:55;2.27;;;1.40;;
7961;SDS011;4026;43.652;24.906;2023-01-05T00:27:22;2.03;;;1.83;;
7961;SDS011;4026;43.652;24.906;2023-01-05T00:29:49;1.40;;;1.13;;
7961;SDS011;4026;43.652;24.906;2023-01-05T00:32:17;1.80;;;1.70;;
7961;SDS011;4026;43.652;24.906;2023-01-05T00:34:44;2.07;;;1.40;;
7961;SDS011;4026;43.652;24.906;2023-01-05T00:37:11;2.03;;;1.30;;
7961;SDS011;4026;43.652;24.906;2023-01-05T00:39:38;1.37;;;1.17;;
7961;SDS011;4026;43.652;24.906;2023-01-05T00:42:05;1.87;;;1.73;;
7961;SDS011;4026;43.652;24.906;2023-01-05T00:44:32;1.17;;;1.13;;
7961;SDS011;4026;43.652;24.906;2023-01-05T00:46:59;2.47;;;1.40;;
7961;SDS011;4026;43.652;24.906;2023-01-05T00:49:27;1.57;;;1.43;;
7961;SDS011;4026;43.652;24.906;2023-01-05T00:51:54;1.97;;;1.87;;
7961;SDS011;4026;43.652;24.906;2023-01-05T00:54:21;3.00;;;1.80;;
7961;SDS011;4026;43.652;24.906;2023-01-05T00:56:47;3.30;;;2.40;;
7961;SDS011;4026;43.652;24.906;2023-01-05T00:59:14;0.80;;;0.80;;
7961;SDS011;4026;43.652;24.906;2023-01-05T01:01:43;1.87;;;1.20;;
7961;SDS011;4026;43.652;24.906;2023-01-05T01:04:10;2.47;;;2.27;;
7961;SDS011;4026;43.652;24.906;2023-01-05T01:06:39;1.83;;;1.63;;
7961;SDS011;4026;43.652;24.906;2023-01-05T01:09:06;1.33;;;1.20;;
7961;SDS011;4026;43.652;24.906;2023-01-05T01:11:33;1.87;;;1.50;;
7961;SDS011;4026;43.652;24.906;2023-01-05T01:14:00;2.20;;;1.83;;
7961;SDS011;4026;43.652;24.906;2023-01-05T01:16:26;3.33;;;1.80;;
7961;SDS011;4026;43.652;24.906;2023-01-05T01:18:53;1.80;;;1.63;;
7961;SDS011;4026;43.652;24.906;2023-01-05T01:21:21;2.30;;;2.00;;
7961;SDS011;4026;43.652;24.906;2023-01-05T01:23:49;2.27;;;2.03;;
7961;SDS011;4026;43.652;24.906;2023-01-05T01:26:16;2.37;;;1.70;;
7961;SDS011;4026;43.652;24.906;2023-01-05T01:28:45;5.53;;;2.73;;
7961;SDS011;4026;43.652;24.906;2023-01-05T01:31:12;3.87;;;2.23;;
7961;SDS011;4026;43.652;24.906;2023-01-05T01:33:39;2.40;;;1.90;;
7961;SDS011;4026;43.652;24.906;2023-01-05T01:36:06;2.23;;;2.03;;
7961;SDS011;4026;43.652;24.906;2023-01-05T01:38:34;2.60;;;2.40;;
7961;SDS011;4026;43.652;24.906;2023-01-05T01:41:03;2.03;;;1.90;;
7961;SDS011;4026;43.652;24.906;2023-01-05T01:43:44;2.20;;;1.73;;
7961;SDS011;4026;43.652;24.906;2023-01-05T01:46:12;4.77;;;2.67;;
7961;SDS011;4026;43.652;24.906;2023-01-05T01:48:43;1.63;;;1.37;;
7961;SDS011;4026;43.652;24.906;2023-01-05T01:51:14;2.90;;;1.57;;
7961;SDS011;4026;43.652;24.906;2023-01-05T01:53:45;2.27;;;1.80;;
7961;SDS011;4026;43.652;24.906;2023-01-05T01:56:19;1.30;;;1.20;;
7961;SDS011;4026;43.652;24.906;2023-01-05T01:58:49;5.20;;;2.10;;
7961;SDS011;4026;43.652;24.906;2023-01-05T02:01:17;3.87;;;2.53;;
7961;SDS011;4026;43.652;24.906;2023-01-05T02:03:44;2.60;;;1.90;;
7961;SDS011;4026;43.652;24.906;2023-01-05T02:06:12;1.70;;;1.60;;
7961;SDS011;4026;43.652;24.906;2023-01-05T02:08:39;2.23;;;1.97;;
7961;SDS011;4026;43.652;24.906;2023-01-05T02:11:17;1.60;;;1.50;;
7961;SDS011;4026;43.652;24.906;2023-01-05T02:14:00;2.77;;;1.90;;
7961;SDS011;4026;43.652;24.906;2023-01-05T02:16:39;2.57;;;1.93;;
7961;SDS011;4026;43.652;24.906;2023-01-05T02:19:19;2.53;;;1.73;;
7961;SDS011;4026;43.652;24.906;2023-01-05T02:22:11;2.73;;;1.57;;
7961;SDS011;4026;43.652;24.906;2023-01-05T02:25:05;1.53;;;1.43;;
7961;SDS011;4026;43.652;24.906;2023-01-05T02:27:49;2.37;;;1.77;;
7961;SDS011;4026;43.652;24.906;2023-01-05T02:33:28;2.13;;;1.93;;
7961;SDS011;4026;43.652;24.906;2023-01-05T02:36:09;2.13;;;1.93;;
7961;SDS011;4026;43.652;24.906;2023-01-05T02:38:43;2.50;;;2.30;;
7961;SDS011;4026;43.652;24.906;2023-01-05T02:41:15;4.23;;;2.40;;
7961;SDS011;4026;43.652;24.906;2023-01-05T02:43:47;2.57;;;1.93;;
7961;SDS011;4026;43.652;24.906;2023-01-05T02:46:14;1.57;;;1.43;;
7961;SDS011;4026;43.652;24.906;2023-01-05T02:48:42;2.60;;;2.40;;
7961;SDS011;4026;43.652;24.906;2023-01-05T02:51:13;4.63;;;3.40;;
7961;SDS011;4026;43.652;24.906;2023-01-05T02:53:45;2.73;;;2.37;;
7961;SDS011;4026;43.652;24.906;2023-01-05T02:56:17;4.50;;;3.27;;
7961;SDS011;4026;43.652;24.906;2023-01-05T02:58:50;2.50;;;1.83;;
7961;SDS011;4026;43.652;24.906;2023-01-05T03:01:21;5.43;;;3.13;;
7961;SDS011;4026;43.652;24.906;2023-01-05T03:03:54;3.33;;;2.53;;
7961;SDS011;4026;43.652;24.906;2023-01-05T03:06:23;2.77;;;2.03;;
7961;SDS011;4026;43.652;24.906;2023-01-05T03:08:56;4.43;;;3.33;;
7961;SDS011;4026;43.652;24.906;2023-01-05T03:11:26;1.70;;;1.53;;
7961;SDS011;4026;43.652;24.906;2023-01-05T03:14:18;2.63;;;2.43;;
7961;SDS011;4026;43.652;24.906;2023-01-05T03:16:50;2.53;;;2.33;;
7961;SDS011;4026;43.652;24.906;2023-01-05T03:19:22;3.33;;;3.00;;
7961;SDS011;4026;43.652;24.906;2023-01-05T03:22:06;3.87;;;2.47;;
7961;SDS011;4026;43.652;24.906;2023-01-05T03:24:54;4.63;;;2.90;;
7961;SDS011;4026;43.652;24.906;2023-01-05T03:27:39;2.00;;;1.87;;
7961;SDS011;4026;43.652;24.906;2023-01-05T03:30:26;2.83;;;2.03;;
7961;SDS011;4026;43.652;24.906;2023-01-05T03:33:18;2.70;;;2.47;;
7961;SDS011;4026;43.652;24.906;2023-01-05T03:36:14;2.57;;;2.40;;
7961;SDS011;4026;43.652;24.906;2023-01-05T03:38:44;3.00;;;2.07;;
7961;SDS011;4026;43.652;24.906;2023-01-05T03:41:14;4.00;;;2.93;;
7961;SDS011;4026;43.652;24.906;2023-01-05T03:43:42;6.97;;;2.77;;
7961;SDS011;4026;43.652;24.906;2023-01-05T03:46:12;2.33;;;2.13;;
7961;SDS011;4026;43.652;24.906;2023-01-05T03:48:42;3.40;;;2.40;;
7961;SDS011;4026;43.652;24.906;2023-01-05T03:51:09;7.20;;;4.33;;
7961;SDS011;4026;43.652;24.906;2023-01-05T03:53:37;2.70;;;2.47;;
7961;SDS011;4026;43.652;24.906;2023-01-05T03:56:04;3.27;;;2.87;;
7961;SDS011;4026;43.652;24.906;2023-01-05T03:58:31;2.90;;;2.63;;
7961;SDS011;4026;43.652;24.906;2023-01-05T04:00:58;2.67;;;2.47;;
7961;SDS011;4026;43.652;24.906;2023-01-05T04:03:25;4.73;;;3.70;;
7961;SDS011;4026;43.652;24.906;2023-01-05T04:05:52;4.63;;;3.13;;
7961;SDS011;4026;43.652;24.906;2023-01-05T04:08:19;2.47;;;2.27;;
7961;SDS011;4026;43.652;24.906;2023-01-05T04:10:47;4.47;;;1.87;;
7961;SDS011;4026;43.652;24.906;2023-01-05T04:13:17;5.27;;;2.30;;
7961;SDS011;4026;43.652;24.906;2023-01-05T04:15:43;2.33;;;1.80;;
7961;SDS011;4026;43.652;24.906;2023-01-05T04:18:10;2.83;;;2.50;;
7961;SDS011;4026;43.652;24.906;2023-01-05T04:20:37;5.13;;;2.80;;
7961;SDS011;4026;43.652;24.906;2023-01-05T04:23:04;2.47;;;2.27;;
7961;SDS011;4026;43.652;24.906;2023-01-05T04:25:31;4.77;;;3.57;;
7961;SDS011;4026;43.652;24.906;2023-01-05T04:27:59;2.23;;;2.03;;
7961;SDS011;4026;43.652;24.906;2023-01-05T04:30:27;3.87;;;2.73;;
7961;SDS011;4026;43.652;24.906;2023-01-05T04:32:54;4.23;;;2.50;;
7961;SDS011;4026;43.652;24.906;2023-01-05T04:35:21;2.63;;;2.40;;
7961;SDS011;4026;43.652;24.906;2023-01-05T04:37:48;2.80;;;1.87;;
7961;SDS011;4026;43.652;24.906;2023-01-05T04:40:15;2.40;;;1.80;;
7961;SDS011;4026;43.652;24.906;2023-01-05T04:42:42;4.73;;;2.30;;
7961;SDS011;4026;43.652;24.906;2023-01-05T04:45:10;3.43;;;1.33;;
7961;SDS011;4026;43.652;24.906;2023-01-05T04:47:37;2.43;;;2.00;;
7961;SDS011;4026;43.652;24.906;2023-01-05T04:50:04;5.90;;;2.23;;
7961;SDS011;4026;43.652;24.906;2023-01-05T04:52:32;1.83;;;1.60;;
7961;SDS011;4026;43.652;24.906;2023-01-05T04:54:59;2.00;;;1.63;;
7961;SDS011;4026;43.652;24.906;2023-01-05T04:57:26;2.73;;;1.93;;
7961;SDS011;4026;43.652;24.906;2023-01-05T04:59:52;1.97;;;1.80;;
7961;SDS011;4026;43.652;24.906;2023-01-05T05:02:21;1.97;;;1.70;;
7961;SDS011;4026;43.652;24.906;2023-01-05T05:04:48;1.47;;;1.20;;
7961;SDS011;4026;43.652;24.906;2023-01-05T05:07:14;2.43;;;1.37;;
7961;SDS011;4026;43.652;24.906;2023-01-05T05:09:41;1.90;;;1.80;;
7961;SDS011;4026;43.652;24.906;2023-01-05T05:12:08;1.57;;;1.37;;
7961;SDS011;4026;43.652;24.906;2023-01-05T05:14:35;3.20;;;1.37;;
7961;SDS011;4026;43.652;24.906;2023-01-05T05:17:02;3.63;;;2.13;;
7961;SDS011;4026;43.652;24.906;2023-01-05T05:19:30;1.47;;;1.37;;
7961;SDS011;4026;43.652;24.906;2023-01-05T05:21:57;3.47;;;2.00;;
7961;SDS011;4026;43.652;24.906;2023-01-05T05:24:24;2.40;;;2.13;;
7961;SDS011;4026;43.652;24.906;2023-01-05T05:26:51;2.53;;;2.00;;
7961;SDS011;4026;43.652;24.906;2023-01-05T05:29:18;1.47;;;1.37;;
7961;SDS011;4026;43.652;24.906;2023-01-05T05:31:45;2.20;;;2.00;;
7961;SDS011;4026;43.652;24.906;2023-01-05T05:34:12;1.60;;;1.40;;
7961;SDS011;4026;43.652;24.906;2023-01-05T05:36:40;1.27;;;1.17;;
7961;SDS011;4026;43.652;24.906;2023-01-05T05:39:07;1.87;;;1.53;;
7961;SDS011;4026;43.652;24.906;2023-01-05T05:41:36;3.13;;;1.23;;
7961;SDS011;4026;43.652;24.906;2023-01-05T05:44:03;2.00;;;1.40;;
7961;SDS011;4026;43.652;24.906;2023-01-05T05:46:30;3.77;;;1.67;;
7961;SDS011;4026;43.652;24.906;2023-01-05T05:48:57;1.03;;;0.93;;
7961;SDS011;4026;43.652;24.906;2023-01-05T05:51:24;1.97;;;1.43;;
7961;SDS011;4026;43.652;24.906;2023-01-05T05:53:53;2.17;;;1.20;;
7961;SDS011;4026;43.652;24.906;2023-01-05T05:56:20;2.50;;;1.83;;
7961;SDS011;4026;43.652;24.906;2023-01-05T05:58:47;2.07;;;1.60;;
7961;SDS011;4026;43.652;24.906;2023-01-05T06:01:14;2.47;;;1.53;;
7961;SDS011;4026;43.652;24.906;2023-01-05T06:03:41;3.07;;;1.27;;
7961;SDS011;4026;43.652;24.906;2023-01-05T06:06:07;3.47;;;2.37;;
7961;SDS011;4026;43.652;24.906;2023-01-05T06:08:35;2.63;;;1.33;;
7961;SDS011;4026;43.652;24.906;2023-01-05T06:11:03;2.10;;;1.60;;
7961;SDS011;4026;43.652;24.906;2023-01-05T06:13:30;3.37;;;1.67;;
7961;SDS011;4026;43.652;24.906;2023-01-05T06:15:57;1.83;;;1.67;;
7961;SDS011;4026;43.652;24.906;2023-01-05T06:18:24;1.63;;;1.53;;
7961;SDS011;4026;43.652;24.906;2023-01-05T06:20:52;2.20;;;2.00;;
7961;SDS011;4026;43.652;24.906;2023-01-05T06:23:19;3.73;;;1.80;;
7961;SDS011;4026;43.652;24.906;2023-01-05T06:25:46;0.60;;;0.60;;
7961;SDS011;4026;43.652;24.906;2023-01-05T06:28:14;2.53;;;2.07;;
7961;SDS011;4026;43.652;24.906;2023-01-05T06:30:41;2.23;;;1.47;;
7961;SDS011;4026;43.652;24.906;2023-01-05T06:33:08;5.23;;;1.90;;
7961;SDS011;4026;43.652;24.906;2023-01-05T06:35:35;2.17;;;1.67;;
7961;SDS011;4026;43.652;24.906;2023-01-05T06:38:02;2.37;;;1.33;;
7961;SDS011;4026;43.652;24.906;2023-01-05T06:40:28;1.67;;;1.47;;
7961;SDS011;4026;43.652;24.906;2023-01-05T06:42:55;1.80;;;1.30;;
7961;SDS011;4026;43.652;24.906;2023-01-05T06:45:23;1.73;;;1.53;;
7961;SDS011;4026;43.652;24.906;2023-01-05T06:47:50;1.87;;;1.73;;
7961;SDS011;4026;43.652;24.906;2023-01-05T06:50:17;1.27;;;1.00;;
7961;SDS011;4026;43.652;24.906;2023-01-05T06:52:45;2.07;;;1.43;;
7961;SDS011;4026;43.652;24.906;2023-01-05T06:55:12;1.40;;;1.30;;
7961;SDS011;4026;43.652;24.906;2023-01-05T06:57:39;2.90;;;1.97;;
7961;SDS011;4026;43.652;24.906;2023-01-05T07:00:07;2.30;;;1.43;;
7961;SDS011;4026;43.652;24.906;2023-01-05T07:02:36;1.60;;;1.43;;
7961;SDS011;4026;43.652;24.906;2023-01-05T07:05:04;1.60;;;1.50;;
7961;SDS011;4026;43.652;24.906;2023-01-05T07:07:31;2.70;;;2.27;;
7961;SDS011;4026;43.652;24.906;2023-01-05T07:09:58;3.50;;;2.00;;
7961;SDS011;4026;43.652;24.906;2023-01-05T07:12:25;2.37;;;1.77;;
7961;SDS011;4026;43.652;24.906;2023-01-05T07:14:52;2.93;;;2.03;;
7961;SDS011;4026;43.652;24.906;2023-01-05T07:17:19;2.23;;;2.03;;
7961;SDS011;4026;43.652;24.906;2023-01-05T07:19:47;3.33;;;2.13;;
7961;SDS011;4026;43.652;24.906;2023-01-05T07:22:14;2.70;;;1.93;;
7961;SDS011;4026;43.652;24.906;2023-01-05T07:24:41;1.47;;;1.37;;
7961;SDS011;4026;43.652;24.906;2023-01-05T07:27:08;5.00;;;2.17;;
7961;SDS011;4026;43.652;24.906;2023-01-05T07:29:35;2.20;;;1.67;;
7961;SDS011;4026;43.652;24.906;2023-01-05T07:32:02;2.60;;;1.80;;
7961;SDS011;4026;43.652;24.906;2023-01-05T07:34:29;3.27;;;2.30;;
7961;SDS011;4026;43.652;24.906;2023-01-05T07:36:57;3.20;;;2.37;;
7961;SDS011;4026;43.652;24.906;2023-01-05T07:39:24;4.13;;;2.50;;
7961;SDS011;4026;43.652;24.906;2023-01-05T07:41:51;4.23;;;3.03;;
7961;SDS011;4026;43.652;24.906;2023-01-05T07:44:18;2.37;;;2.17;;
7961;SDS011;4026;43.652;24.906;2023-01-05T07:46:44;4.17;;;2.70;;
7961;SDS011;4026;43.652;24.906;2023-01-05T07:49:11;3.53;;;2.53;;
7961;SDS011;4026;43.652;24.906;2023-01-05T07:51:39;10.10;;;4.03;;
7961;SDS011;4026;43.652;24.906;2023-01-05T07:54:07;3.13;;;2.80;;
7961;SDS011;4026;43.652;24.906;2023-01-05T07:56:34;3.87;;;3.07;;
7961;SDS011;4026;43.652;24.906;2023-01-05T07:59:01;5.30;;;2.63;;
7961;SDS011;4026;43.652;24.906;2023-01-05T08:01:28;3.50;;;3.20;;
7961;SDS011;4026;43.652;24.906;2023-01-05T08:03:55;5.00;;;3.77;;
7961;SDS011;4026;43.652;24.906;2023-01-05T08:06:22;4.23;;;2.63;;
7961;SDS011;4026;43.652;24.906;2023-01-05T08:08:49;5.40;;;2.87;;
7961;SDS011;4026;43.652;24.906;2023-01-05T08:11:17;4.33;;;2.73;;
7961;SDS011;4026;43.652;24.906;2023-01-05T08:13:46;6.90;;;3.30;;
7961;SDS011;4026;43.652;24.906;2023-01-05T08:16:27;7.20;;;4.50;;
7961;SDS011;4026;43.652;24.906;2023-01-05T08:18:55;6.57;;;4.63;;
7961;SDS011;4026;43.652;24.906;2023-01-05T08:21:22;4.77;;;2.33;;
7961;SDS011;4026;43.652;24.906;2023-01-05T08:23:49;6.03;;;3.97;;
7961;SDS011;4026;43.652;24.906;2023-01-05T08:26:19;4.43;;;3.47;;
7961;SDS011;4026;43.652;24.906;2023-01-05T08:28:48;5.20;;;3.23;;
7961;SDS011;4026;43.652;24.906;2023-01-05T08:31:15;5.50;;;3.27;;
7961;SDS011;4026;43.652;24.906;2023-01-05T08:33:44;7.47;;;3.30;;
7961;SDS011;4026;43.652;24.906;2023-01-05T08:36:11;5.77;;;4.00;;
7961;SDS011;4026;43.652;24.906;2023-01-05T08:38:40;10.63;;;5.27;;
7961;SDS011;4026;43.652;24.906;2023-01-05T08:41:13;7.50;;;4.30;;
7961;SDS011;4026;43.652;24.906;2023-01-05T08:43:43;7.87;;;4.07;;
7961;SDS011;4026;43.652;24.906;2023-01-05T08:46:14;6.47;;;4.93;;
7961;SDS011;4026;43.652;24.906;2023-01-05T08:48:40;6.07;;;3.50;;
7961;SDS011;4026;43.652;24.906;2023-01-05T08:51:07;7.60;;;4.73;;
7961;SDS011;4026;43.652;24.906;2023-01-05T08:53:34;8.83;;;4.83;;
7961;SDS011;4026;43.652;24.906;2023-01-05T08:56:01;7.97;;;4.37;;
7961;SDS011;4026;43.652;24.906;2023-01-05T08:58:28;11.67;;;3.80;;
7961;SDS011;4026;43.652;24.906;2023-01-05T09:00:56;6.67;;;4.93;;
7961;SDS011;4026;43.652;24.906;2023-01-05T09:03:23;6.87;;;4.47;;
7961;SDS011;4026;43.652;24.906;2023-01-05T09:05:51;6.83;;;4.13;;
7961;SDS011;4026;43.652;24.906;2023-01-05T09:08:19;6.83;;;3.77;;
7961;SDS011;4026;43.652;24.906;2023-01-05T09:10:46;7.43;;;3.90;;
7961;SDS011;4026;43.652;24.906;2023-01-05T09:13:13;7.17;;;4.20;;
7961;SDS011;4026;43.652;24.906;2023-01-05T09:15:39;7.70;;;4.53;;
7961;SDS011;4026;43.652;24.906;2023-01-05T09:18:08;9.13;;;4.03;;
7961;SDS011;4026;43.652;24.906;2023-01-05T09:20:34;6.60;;;4.43;;
7961;SDS011;4026;43.652;24.906;2023-01-05T09:23:01;8.57;;;4.03;;
7961;SDS011;4026;43.652;24.906;2023-01-05T09:25:28;6.27;;;4.03;;
7961;SDS011;4026;43.652;24.906;2023-01-05T09:27:55;7.17;;;4.60;;
7961;SDS011;4026;43.652;24.906;2023-01-05T09:30:22;5.73;;;4.13;;
7961;SDS011;4026;43.652;24.906;2023-01-05T09:32:49;10.60;;;5.00;;
7961;SDS011;4026;43.652;24.906;2023-01-05T09:35:17;12.60;;;4.87;;
7961;SDS011;4026;43.652;24.906;2023-01-05T09:37:44;9.00;;;5.57;;
7961;SDS011;4026;43.652;24.906;2023-01-05T09:40:11;9.30;;;4.60;;
7961;SDS011;4026;43.652;24.906;2023-01-05T09:42:40;6.87;;;3.67;;
7961;SDS011;4026;43.652;24.906;2023-01-05T09:45:10;8.17;;;4.20;;
7961;SDS011;4026;43.652;24.906;2023-01-05T09:47:41;8.73;;;4.73;;
7961;SDS011;4026;43.652;24.906;2023-01-05T09:50:16;5.23;;;3.57;;
7961;SDS011;4026;43.652;24.906;2023-01-05T09:52:46;8.60;;;4.13;;
7961;SDS011;4026;43.652;24.906;2023-01-05T09:55:14;9.00;;;4.50;;
7961;SDS011;4026;43.652;24.906;2023-01-05T09:57:51;6.13;;;3.40;;
7961;SDS011;4026;43.652;24.906;2023-01-05T10:00:20;8.20;;;3.80;;
7961;SDS011;4026;43.652;24.906;2023-01-05T10:02:49;5.10;;;3.10;;
7961;SDS011;4026;43.652;24.906;2023-01-05T10:05:20;7.77;;;3.70;;
7961;SDS011;4026;43.652;24.906;2023-01-05T10:07:49;8.53;;;4.73;;
7961;SDS011;4026;43.652;24.906;2023-01-05T10:10:22;8.63;;;4.60;;
7961;SDS011;4026;43.652;24.906;2023-01-05T10:12:54;12.93;;;4.23;;
7961;SDS011;4026;43.652;24.906;2023-01-05T10:15:31;6.70;;;4.67;;
7961;SDS011;4026;43.652;24.906;2023-01-05T10:18:07;7.33;;;4.40;;
7961;SDS011;4026;43.652;24.906;2023-01-05T10:20:42;6.60;;;4.13;;
7961;SDS011;4026;43.652;24.906;2023-01-05T10:23:19;4.70;;;2.97;;
7961;SDS011;4026;43.652;24.906;2023-01-05T10:26:02;6.50;;;3.40;;
7961;SDS011;4026;43.652;24.906;2023-01-05T10:28:36;5.43;;;3.70;;
7961;SDS011;4026;43.652;24.906;2023-01-05T10:31:11;7.57;;;3.73;;
7961;SDS011;4026;43.652;24.906;2023-01-05T10:33:48;7.13;;;4.27;;
7961;SDS011;4026;43.652;24.906;2023-01-05T10:36:26;7.17;;;3.43;;
7961;SDS011;4026;43.652;24.906;2023-01-05T10:39:02;6.10;;;3.43;;
7961;SDS011;4026;43.652;24.906;2023-01-05T10:41:42;6.67;;;3.70;;
7961;SDS011;4026;43.652;24.906;2023-01-05T10:44:32;7.23;;;3.40;;
7961;SDS011;4026;43.652;24.906;2023-01-05T10:47:06;6.93;;;3.87;;
7961;SDS011;4026;43.652;24.906;2023-01-05T10:49:34;6.00;;;3.80;;
7961;SDS011;4026;43.652;24.906;2023-01-05T10:52:04;7.10;;;3.70;;
7961;SDS011;4026;43.652;24.906;2023-01-05T10:54:38;6.90;;;3.67;;
7961;SDS011;4026;43.652;24.906;2023-01-05T10:59:59;5.63;;;3.53;;
7961;SDS011;4026;43.652;24.906;2023-01-05T11:02:28;5.80;;;3.47;;
7961;SDS011;4026;43.652;24.906;2023-01-05T11:05:00;4.10;;;2.77;;
7961;SDS011;4026;43.652;24.906;2023-01-05T11:07:31;4.60;;;3.10;;
7961;SDS011;4026;43.652;24.906;2023-01-05T11:09:58;7.87;;;4.03;;
7961;SDS011;4026;43.652;24.906;2023-01-05T11:12:25;4.73;;;3.03;;
7961;SDS011;4026;43.652;24.906;2023-01-05T11:14:53;6.87;;;3.20;;
7961;SDS011;4026;43.652;24.906;2023-01-05T11:17:22;4.53;;;2.77;;
7961;SDS011;4026;43.652;24.906;2023-01-05T11:19:52;6.67;;;3.40;;
7961;SDS011;4026;43.652;24.906;2023-01-05T11:22:33;7.00;;;3.10;;
7961;SDS011;4026;43.652;24.906;2023-01-05T11:25:16;4.60;;;3.03;;
7961;SDS011;4026;43.652;24.906;2023-01-05T11:27:56;7.37;;;3.80;;
7961;SDS011;4026;43.652;24.906;2023-01-05T11:30:31;5.40;;;2.90;;
7961;SDS011;4026;43.652;24.906;2023-01-05T11:32:59;5.27;;;3.57;;
7961;SDS011;4026;43.652;24.906;2023-01-05T11:35:28;8.93;;;4.00;;
7961;SDS011;4026;43.652;24.906;2023-01-05T11:37:58;6.33;;;3.70;;
7961;SDS011;4026;43.652;24.906;2023-01-05T11:40:27;5.90;;;3.03;;
7961;SDS011;4026;43.652;24.906;2023-01-05T11:42:57;4.77;;;2.83;;
7961;SDS011;4026;43.652;24.906;2023-01-05T11:45:25;4.83;;;2.83;;
7961;SDS011;4026;43.652;24.906;2023-01-05T11:47:55;4.57;;;2.97;;
7961;SDS011;4026;43.652;24.906;2023-01-05T11:50:24;3.80;;;2.63;;
7961;SDS011;4026;43.652;24.906;2023-01-05T11:52:53;4.17;;;2.77;;
7961;SDS011;4026;43.652;24.906;2023-01-05T11:55:27;3.57;;;2.17;;
7961;SDS011;4026;43.652;24.906;2023-01-05T12:06:50;3.10;;;2.30;;
7961;SDS011;4026;43.652;24.906;2023-01-05T12:09:27;4.97;;;2.60;;
7961;SDS011;4026;43.652;24.906;2023-01-05T12:12:01;4.50;;;2.37;;
7961;SDS011;4026;43.652;24.906;2023-01-05T12:14:46;4.37;;;2.37;;
7961;SDS011;4026;43.652;24.906;2023-01-05T12:17:35;4.47;;;2.20;;
7961;SDS011;4026;43.652;24.906;2023-01-05T12:20:26;3.97;;;2.27;;
7961;SDS011;4026;43.652;24.906;2023-01-05T12:26:11;5.50;;;3.20;;
7961;SDS011;4026;43.652;24.906;2023-01-05T12:28:59;6.67;;;3.00;;
7961;SDS011;4026;43.652;24.906;2023-01-05T12:31:39;5.07;;;2.57;;
7961;SDS011;4026;43.652;24.906;2023-01-05T12:34:33;5.23;;;2.70;;
7961;SDS011;4026;43.652;24.906;2023-01-05T12:37:20;5.47;;;2.77;;
7961;SDS011;4026;43.652;24.906;2023-01-05T12:43:02;3.47;;;2.37;;
7961;SDS011;4026;43.652;24.906;2023-01-05T12:48:30;6.67;;;2.83;;
7961;SDS011;4026;43.652;24.906;2023-01-05T12:51:03;8.57;;;4.13;;
7961;SDS011;4026;43.652;24.906;2023-01-05T12:53:47;6.60;;;3.57;;
7961;SDS011;4026;43.652;24.906;2023-01-05T12:56:19;6.10;;;3.43;;
7961;SDS011;4026;43.652;24.906;2023-01-05T12:58:56;5.43;;;3.40;;
7961;SDS011;4026;43.652;24.906;2023-01-05T13:01:34;7.33;;;4.43;;
7961;SDS011;4026;43.652;24.906;2023-01-05T13:04:09;4.57;;;3.00;;
7961;SDS011;4026;43.652;24.906;2023-01-05T13:06:40;3.87;;;2.60;;
7961;SDS011;4026;43.652;24.906;2023-01-05T13:09:14;3.97;;;2.40;;
7961;SDS011;4026;43.652;24.906;2023-01-05T13:11:47;2.77;;;1.90;;
7961;SDS011;4026;43.652;24.906;2023-01-05T13:14:17;4.07;;;2.20;;
7961;SDS011;4026;43.652;24.906;2023-01-05T13:16:50;5.30;;;2.77;;
7961;SDS011;4026;43.652;24.906;2023-01-05T13:19:20;4.67;;;2.80;;
7961;SDS011;4026;43.652;24.906;2023-01-05T13:21:50;6.03;;;3.03;;
7961;SDS011;4026;43.652;24.906;2023-01-05T13:24:21;6.13;;;3.10;;
7961;SDS011;4026;43.652;24.906;2023-01-05T13:26:56;7.30;;;3.87;;
7961;SDS011;4026;43.652;24.906;2023-01-05T13:29:25;18.83;;;6.30;;
7961;SDS011;4026;43.652;24.906;2023-01-05T13:32:14;6.73;;;4.20;;
7961;SDS011;4026;43.652;24.906;2023-01-05T13:37:59;5.03;;;2.87;;
7961;SDS011;4026;43.652;24.906;2023-01-05T13:40:51;4.13;;;2.70;;
7961;SDS011;4026;43.652;24.906;2023-01-05T13:43:37;4.63;;;2.70;;
7961;SDS011;4026;43.652;24.906;2023-01-05T13:49:48;3.83;;;2.57;;
7961;SDS011;4026;43.652;24.906;2023-01-05T13:52:30;4.33;;;2.90;;
7961;SDS011;4026;43.652;24.906;2023-01-05T13:55:11;3.43;;;2.17;;
7961;SDS011;4026;43.652;24.906;2023-01-05T13:57:40;5.07;;;2.63;;
7961;SDS011;4026;43.652;24.906;2023-01-05T14:00:18;4.90;;;3.03;;
7961;SDS011;4026;43.652;24.906;2023-01-05T14:02:55;6.93;;;3.17;;
7961;SDS011;4026;43.652;24.906;2023-01-05T14:05:28;6.90;;;3.53;;
7961;SDS011;4026;43.652;24.906;2023-01-05T14:07:58;4.27;;;2.90;;
7961;SDS011;4026;43.652;24.906;2023-01-05T14:10:32;4.63;;;3.37;;
7961;SDS011;4026;43.652;24.906;2023-01-05T14:12:59;5.03;;;2.73;;
7961;SDS011;4026;43.652;24.906;2023-01-05T14:15:38;9.27;;;3.23;;
7961;SDS011;4026;43.652;24.906;2023-01-05T14:18:06;4.27;;;2.83;;
7961;SDS011;4026;43.652;24.906;2023-01-05T14:20:39;3.10;;;1.77;;
7961;SDS011;4026;43.652;24.906;2023-01-05T14:26:14;5.87;;;2.77;;
7961;SDS011;4026;43.652;24.906;2023-01-05T14:28:42;6.00;;;2.67;;
7961;SDS011;4026;43.652;24.906;2023-01-05T14:34:16;4.33;;;2.60;;
7961;SDS011;4026;43.652;24.906;2023-01-05T14:36:48;3.13;;;2.17;;
7961;SDS011;4026;43.652;24.906;2023-01-05T14:39:27;3.90;;;2.47;;
7961;SDS011;4026;43.652;24.906;2023-01-05T14:41:58;4.47;;;2.73;;
7961;SDS011;4026;43.652;24.906;2023-01-05T14:44:33;5.83;;;3.07;;
7961;SDS011;4026;43.652;24.906;2023-01-05T14:47:08;4.90;;;2.83;;
7961;SDS011;4026;43.652;24.906;2023-01-05T14:49:36;3.30;;;2.23;;
7961;SDS011;4026;43.652;24.906;2023-01-05T14:52:17;3.57;;;2.53;;
7961;SDS011;4026;43.652;24.906;2023-01-05T14:55:08;3.33;;;1.77;;
7961;SDS011;4026;43.652;24.906;2023-01-05T14:57:48;3.37;;;2.30;;
7961;SDS011;4026;43.652;24.906;2023-01-05T15:00:18;2.87;;;1.67;;
7961;SDS011;4026;43.652;24.906;2023-01-05T15:02:54;2.07;;;1.50;;
7961;SDS011;4026;43.652;24.906;2023-01-05T15:05:26;2.10;;;1.20;;
7961;SDS011;4026;43.652;24.906;2023-01-05T15:07:59;3.10;;;2.37;;
7961;SDS011;4026;43.652;24.906;2023-01-05T15:10:56;4.13;;;2.30;;
7961;SDS011;4026;43.652;24.906;2023-01-05T15:23:23;3.97;;;2.07;;
7961;SDS011;4026;43.652;24.906;2023-01-05T15:26:06;2.80;;;2.13;;
7961;SDS011;4026;43.652;24.906;2023-01-05T15:32:00;2.03;;;1.63;;
7961;SDS011;4026;43.652;24.906;2023-01-05T15:34:33;2.23;;;1.97;;
7961;SDS011;4026;43.652;24.906;2023-01-05T15:37:09;2.37;;;1.70;;
7961;SDS011;4026;43.652;24.906;2023-01-05T15:39:47;2.90;;;1.60;;
7961;SDS011;4026;43.652;24.906;2023-01-05T15:42:17;3.53;;;1.67;;
7961;SDS011;4026;43.652;24.906;2023-01-05T15:44:47;3.70;;;1.67;;
7961;SDS011;4026;43.652;24.906;2023-01-05T15:47:17;4.83;;;2.20;;
7961;SDS011;4026;43.652;24.906;2023-01-05T15:49:45;3.30;;;1.47;;
7961;SDS011;4026;43.652;24.906;2023-01-05T15:52:18;2.57;;;1.60;;
7961;SDS011;4026;43.652;24.906;2023-01-05T15:54:57;4.13;;;1.80;;
7961;SDS011;4026;43.652;24.906;2023-01-05T15:57:26;2.87;;;1.80;;
7961;SDS011;4026;43.652;24.906;2023-01-05T15:59:54;4.10;;;1.67;;
7961;SDS011;4026;43.652;24.906;2023-01-05T16:02:21;1.83;;;1.50;;
7961;SDS011;4026;43.652;24.906;2023-01-05T16:05:09;1.87;;;1.60;;
7961;SDS011;4026;43.652;24.906;2023-01-05T16:07:45;3.60;;;1.77;;
7961;SDS011;4026;43.652;24.906;2023-01-05T16:10:18;3.50;;;1.50;;
7961;SDS011;4026;43.652;24.906;2023-01-05T16:12:48;2.70;;;2.00;;
7961;SDS011;4026;43.652;24.906;2023-01-05T16:15:19;3.03;;;2.47;;